Latest Weather Observations for Coonabarabran Airport

IDN60801

Issued at 11:35 am EST Tuesday 2 September 2014 (issued every 30 minutes, with the page automatically refreshed every 10 minutes)

About weather observations | Map of weather stations | Latest weather observations for NSW | Other Formats
Station Details ID: 064017 Name: COONABARABRAN AIRPORT AWS Lat: -31.33 Lon: 149.27 Height: 645.0 m
Data from the previous 72 hours. | See also: Recent months for locations in New South Wales
Date/Time
EST
Temp
°C
App
Temp
°C
Dew
Point
Rel
Hum
%
Delta-T
°C
Wind Press
QNH
hPa
Press
MSL
hPa
Rain
since 9 am
mm
Dir
 
Spd
km/h
Gust
km/h
Spd
kts
Gust
kts
02/11:32am 9.6 2.4 6.1 79 1.7 SW 33 52 18 28 1012.9 - 0.4
02/11:30am 9.9 2.8 6.4 79 1.7 SW 33 50 18 27 1012.9 - 0.4
02/11:00am 9.6 3.0 7.9 89 0.8 SSW 32 48 17 26 1013.0 1011.6 0.4
02/10:30am 8.0 2.6 7.9 99 0.0 SW 26 37 14 20 1013.2 - 0.4
02/10:00am 8.1 1.9 7.7 97 0.2 SW 30 48 16 26 1013.2 1011.8 0.2
02/09:53am 8.1 2.2 7.7 97 0.2 SW 28 48 15 26 1013.1 - 0.2
02/09:30am 9.4 2.9 8.3 93 0.6 WSW 32 44 17 24 1012.7 - 0.0
02/09:29am 9.4 2.9 8.2 92 0.6 WSW 32 44 17 24 1012.7 - 0.0
02/09:00am 9.2 7.2 8.7 97 0.3 SW 9 15 5 8 1012.3 1011.0 1.4
02/08:30am 9.2 7.1 8.1 93 0.5 S 9 17 5 9 1012.2 - 0.6
02/08:00am 9.6 6.4 7.0 84 1.3 S 13 17 7 9 1012.1 1010.8 0.0
02/07:30am 9.5 6.8 7.4 87 1.0 S 11 15 6 8 1011.9 - 0.0
02/07:00am 9.1 6.3 7.1 87 1.0 S 11 15 6 8 1012.3 1011.0 0.0
02/06:30am 8.9 6.9 6.2 83 1.3 - 6 - 3 - 1012.8 - 0.0
02/06:00am 9.3 4.9 6.4 82 1.4 S 19 28 10 15 1012.1 1010.8 0.0
02/05:30am 9.4 5.7 6.3 81 1.5 S 15 22 8 12 1012.7 - 0.0
02/05:00am 9.5 5.4 6.0 79 1.7 SSW 17 24 9 13 1012.9 1011.5 0.0
02/04:30am 9.7 5.2 5.9 77 1.8 SSW 19 30 10 16 1012.9 - 0.0
02/04:00am 10.0 4.1 5.8 75 2.0 SSW 26 39 14 21 1013.0 1011.6 0.0
02/03:30am 10.3 4.7 5.3 71 2.4 SSW 24 43 13 23 1013.0 - 0.0
02/03:00am 11.1 5.1 3.4 59 3.5 SW 24 35 13 19 1012.4 1011.1 0.0
02/02:30am 13.1 7.4 0.8 43 5.4 WSW 20 28 11 15 1012.1 - 0.0
02/02:12am 13.5 6.3 0.9 42 5.6 W 28 37 15 20 1012.4 - 0.0
02/02:00am 12.3 7.6 1.0 46 4.9 NNW 15 17 8 9 1011.9 1010.5 0.0
02/01:30am 12.1 7.5 1.4 48 4.7 NNW 15 17 8 9 1012.1 - 0.0
02/01:00am 11.5 7.4 2.3 53 4.1 N 13 17 7 9 1012.3 1011.0 0.0
02/12:30am 12.1 8.0 2.0 50 4.5 N 13 15 7 8 1013.1 - 0.0
02/12:00am 13.0 9.2 1.7 46 5.1 N 11 13 6 7 1013.3 1011.9 0.0
 
Date/Time
EST
Temp
°C
App
Temp
°C
Dew
Point
Rel
Hum
%
Delta-T
°C
Wind Press
QNH
hPa
Press
MSL
hPa
Rain
since 9 am
mm
Dir
 
Spd
km/h
Gust
km/h
Spd
kts
Gust
kts
01/11:30pm 12.8 9.1 2.4 49 4.7 N 11 13 6 7 1013.7 - 0.0
01/11:00pm 12.8 9.5 2.4 49 4.7 N 9 15 5 8 1013.9 1012.6 0.0
01/10:30pm 13.7 10.0 2.6 47 5.1 N 11 13 6 7 1014.0 - 0.0
01/10:00pm 13.7 10.0 2.3 46 5.2 N 11 13 6 7 1014.5 1013.1 0.0
01/09:30pm 13.5 10.1 2.1 46 5.2 NNW 9 11 5 6 1014.8 - 0.0
01/09:00pm 14.2 11.0 2.8 46 5.3 NNW 9 15 5 8 1014.8 1013.5 0.0
01/08:30pm 14.2 11.0 2.8 46 5.3 N 9 15 5 8 1014.9 - 0.0
01/08:00pm 14.4 11.1 2.3 44 5.5 NNW 9 17 5 9 1015.0 1013.7 0.0
01/07:30pm 14.6 11.7 2.8 45 5.5 N 7 15 4 8 1015.0 - 0.0
01/07:00pm 14.6 11.7 2.8 45 5.5 NW 7 15 4 8 1014.9 1013.6 0.0
01/06:30pm 14.5 11.2 2.7 45 5.5 NNW 9 11 5 6 1014.8 - 0.0
01/06:00pm 15.1 11.5 3.0 44 5.7 NW 11 15 6 8 1014.7 1013.4 0.0
01/05:30pm 16.1 12.1 2.9 41 6.2 NNW 13 17 7 9 1014.7 - 0.0
01/05:00pm 16.9 12.9 2.9 39 6.6 NW 13 17 7 9 1014.8 1013.5 0.0
01/04:30pm 18.0 13.6 2.7 36 7.3 NW 15 22 8 12 1014.8 - 0.0
01/04:00pm 18.6 12.8 2.4 34 7.7 WNW 22 30 12 16 1014.9 1013.6 0.0
01/03:30pm 18.8 13.1 0.4 29 8.4 NW 20 32 11 17 1014.9 - 0.0
01/03:00pm 19.5 15.7 4.0 36 7.6 NNW 13 17 7 9 1015.3 1014.0 0.0
01/02:30pm 19.1 14.9 3.7 36 7.5 NW 15 20 8 11 1015.3 - 0.0
01/02:00pm 18.8 14.3 4.2 38 7.2 NW 17 26 9 14 1015.4 1014.1 0.0
01/01:30pm 17.6 13.2 4.9 43 6.3 NW 17 24 9 13 1016.1 - 0.0
01/01:00pm 17.7 14.2 5.3 44 6.2 NNW 13 24 7 13 1016.5 1015.2 0.0
01/12:30pm 17.9 14.4 5.5 44 6.2 NNW 13 20 7 11 1017.1 - 0.0
01/12:00pm 18.0 14.4 3.1 37 7.1 WNW 11 26 6 14 1017.7 1016.4 0.0
01/11:30am 17.6 13.6 3.1 38 6.9 W 13 24 7 13 1018.2 - 0.0
01/11:00am 17.7 13.5 3.6 39 6.8 W 15 24 8 13 1018.6 1017.3 0.0
01/10:30am 17.1 13.2 5.4 46 5.8 WNW 15 20 8 11 1018.7 - 0.0
01/10:00am 16.6 13.1 5.3 47 5.6 NW 13 20 7 11 1018.8 1017.6 0.0
01/09:30am 15.7 12.9 7.0 56 4.4 NNW 11 19 6 10 1018.7 - 0.0
01/09:00am 14.6 11.7 6.4 58 4.1 NNW 11 15 6 8 1019.0 1018.7 0.0
01/08:30am 13.8 10.9 6.4 61 3.7 N 11 13 6 7 1019.2 - 0.0
01/08:00am 13.1 10.7 6.9 66 3.1 N 9 15 5 8 1019.3 1018.9 0.0
01/07:30am 12.2 9.7 6.7 69 2.7 N 9 15 5 8 1019.0 - 0.0
01/07:00am 10.4 7.6 5.2 70 2.5 NNW 9 11 5 6 1018.8 1018.5 0.0
01/06:30am 10.3 7.5 5.1 70 2.4 N 9 15 5 8 1018.5 - 0.0
01/06:00am 10.6 9.5 4.9 68 2.7 CALM 0 0 0 0 1018.3 1018.0 0.0
01/05:30am 10.5 9.4 5.1 69 2.5 CALM 0 0 0 0 1018.0 - 0.0
01/05:00am 10.9 9.8 5.2 68 2.7 CALM 0 0 0 0 1017.8 1017.4 0.0
01/04:30am 10.1 9.0 4.9 70 2.4 CALM 0 0 0 0 1017.7 - 0.0
01/04:00am 10.3 9.1 4.5 67 2.7 CALM 0 0 0 0 1017.3 1017.0 0.0
01/03:30am 10.3 7.7 4.2 66 2.8 W 7 15 4 8 1017.5 - 0.0
01/03:00am 11.7 8.9 5.1 64 3.1 ESE 9 19 5 10 1017.2 1016.9 0.0
01/02:30am 12.1 9.6 5.0 62 3.4 S 7 15 4 8 1017.6 - 0.0
01/02:00am 11.8 8.9 4.8 62 3.3 SW 9 11 5 6 1017.9 1017.5 0.0
01/01:30am 11.6 9.3 5.0 64 3.1 SSW 6 13 3 7 1018.3 - 0.0
01/01:00am 11.9 9.0 4.9 62 3.3 SW 9 17 5 9 1018.6 1018.3 0.0
01/12:30am 11.9 9.0 4.9 62 3.3 SSW 9 13 5 7 1018.7 - 0.0
01/12:00am 12.2 9.3 4.9 61 3.5 SW 9 15 5 8 1019.0 1018.7 0.0
 
Date/Time
EST
Temp
°C
App
Temp
°C
Dew
Point
Rel
Hum
%
Delta-T
°C
Wind Press
QNH
hPa
Press
MSL
hPa
Rain
since 9 am
mm
Dir
 
Spd
km/h
Gust
km/h
Spd
kts
Gust
kts
31/11:30pm 12.0 9.3 5.4 64 3.2 SW 9 17 5 9 1019.2 - 0.0
31/11:00pm 11.7 9.0 5.6 66 2.9 WSW 9 13 5 7 1019.5 1019.2 0.0
31/10:30pm 11.8 8.7 5.4 65 3.1 SW 11 15 6 8 1019.5 - 0.0
31/10:00pm 12.3 8.9 5.7 64 3.2 WSW 13 15 7 8 1019.5 1019.2 0.0
31/09:30pm 12.3 9.3 5.9 65 3.1 SW 11 13 6 7 1019.4 - 0.0
31/09:00pm 12.2 8.8 6.0 66 3.0 WSW 13 15 7 8 1019.3 1018.9 0.0
31/08:30pm 12.3 8.9 6.1 66 3.0 WSW 13 17 7 9 1019.2 - 0.0
31/08:00pm 12.7 9.4 6.3 65 3.1 WSW 13 15 7 8 1019.2 1018.8 0.0
31/07:30pm 13.9 11.8 5.8 58 4.0 SSW 6 13 3 7 1018.9 - 0.0
31/07:00pm 13.9 11.2 5.8 58 4.0 SSW 9 13 5 7 1018.8 1018.5 0.0
31/06:30pm 14.0 11.3 5.6 57 4.1 S 9 11 5 6 1018.4 - 0.0
31/06:00pm 14.7 12.4 5.5 54 4.5 SSE 7 15 4 8 1018.2 1017.9 0.0
31/05:30pm 15.6 12.9 5.5 51 5.0 S 9 13 5 7 1018.1 - 0.0
31/05:00pm 17.3 15.2 5.9 47 5.7 SSW 6 11 3 6 1018.0 1017.6 0.0
31/04:30pm 17.7 14.9 5.3 44 6.2 SSW 9 15 5 8 1018.0 - 0.0
31/04:00pm 17.5 14.1 5.8 46 5.9 S 13 19 7 10 1018.0 1017.6 0.0
31/03:30pm 17.9 14.7 6.7 48 5.8 SSW 13 20 7 11 1018.0 - 0.0
31/03:00pm 17.6 14.4 6.8 49 5.5 SSE 13 20 7 11 1018.2 1017.9 0.0
31/02:30pm 16.3 13.2 5.6 49 5.3 SW 11 17 6 9 1018.4 - 0.0
31/02:00pm 17.4 14.5 6.6 49 5.5 SW 11 17 6 9 1018.6 1018.3 0.0
31/01:30pm 17.2 14.5 7.3 52 5.1 S 11 17 6 9 1019.0 - 0.0
31/01:00pm 17.3 14.7 7.9 54 4.9 SSE 11 17 6 9 1019.5 1019.2 0.0
31/12:30pm 16.5 13.4 7.4 55 4.7 SE 13 19 7 10 1019.8 - 0.0
31/12:00pm 16.6 14.5 8.1 57 4.4 E 9 13 5 7 1020.4 1020.1 0.0
31/11:30am 16.1 14.1 8.6 61 4.0 SSW 9 17 5 9 1020.8 - 0.0
31/11:00am 15.1 13.0 6.7 57 4.2 W 7 15 4 8 1021.0 1020.7 0.0
31/10:30am 14.7 12.6 8.4 66 3.3 ENE 9 15 5 8 1021.4 - 0.0
31/10:00am 13.4 10.9 8.3 71 2.6 E 11 17 6 9 1021.5 1021.2 0.0
31/09:30am 13.1 9.9 8.4 73 2.4 E 15 20 8 11 1021.6 - 0.0
31/09:00am 12.5 11.3 8.0 74 2.3 S 4 13 2 7 1021.6 1021.3 0.2
31/08:30am 11.2 9.7 8.6 84 1.3 SSE 6 15 3 8 1021.6 - 0.2
31/08:00am 10.4 8.8 8.7 89 0.9 SSW 7 15 4 8 1021.7 1021.4 0.2
31/07:30am 9.7 7.6 8.3 91 0.7 SSW 9 19 5 10 1021.5 - 0.2
31/07:00am 8.6 6.3 7.5 93 0.5 S 9 15 5 8 1021.2 1020.9 0.2
31/06:30am 8.6 6.4 7.7 94 0.4 S 9 15 5 8 1021.0 - 0.2
31/06:00am 8.4 6.1 7.3 93 0.5 SSW 9 15 5 8 1021.0 1020.7 0.2
31/05:30am 8.2 5.9 7.3 94 0.4 SSW 9 11 5 6 1020.9 - 0.2
31/05:00am 8.2 5.9 7.3 94 0.4 SSW 9 15 5 8 1020.5 1020.2 0.2
31/04:30am 8.0 5.6 7.1 94 0.4 SSW 9 11 5 6 1020.4 - 0.0
31/04:00am 7.9 5.5 6.8 93 0.5 SSW 9 13 5 7 1020.5 1020.2 0.0
31/03:30am 8.2 5.8 7.1 93 0.5 SSW 9 20 5 11 1020.6 - 0.0
31/03:00am 8.5 6.2 7.4 93 0.5 SW 9 15 5 8 1020.9 1020.6 0.0
31/02:30am 8.2 5.9 7.4 95 0.4 SW 9 11 5 6 1021.1 - 0.0
31/02:00am 8.5 6.3 7.7 95 0.4 S 9 17 5 9 1021.2 1020.9 0.0
31/01:30am 8.2 5.9 7.6 96 0.3 SSW 9 11 5 6 1021.5 - 0.0
31/01:00am 8.4 6.1 7.3 93 0.5 SSW 9 19 5 10 1021.6 1021.3 0.0
31/12:30am 9.3 7.2 8.1 92 0.6 S 9 19 5 10 1021.5 - 0.0
31/12:00am 9.3 7.1 7.7 90 0.8 S 9 17 5 9 1021.6 1021.3 0.0
 
Date/Time
EST
Temp
°C
App
Temp
°C
Dew
Point
Rel
Hum
%
Delta-T
°C
Wind Press
QNH
hPa
Press
MSL
hPa
Rain
since 9 am
mm
Dir
 
Spd
km/h
Gust
km/h
Spd
kts
Gust
kts
30/11:30pm 9.8 7.6 7.9 88 0.9 S 9 13 5 7 1021.8 - 0.0
30/11:00pm 9.6 7.3 7.4 86 1.1 S 9 13 5 7 1022.0 1021.7 0.0
30/10:30pm 9.7 6.9 6.8 82 1.4 S 11 11 6 6 1022.0 - 0.0
30/10:00pm 10.8 8.5 7.5 80 1.6 SSE 9 11 5 6 1022.0 1021.7 0.0
30/09:30pm 11.0 8.7 7.5 79 1.7 ESE 9 15 5 8 1022.1 - 0.0
30/09:00pm 11.1 8.7 6.8 75 2.1 SSE 9 13 5 7 1022.2 1022.0 0.0
30/08:30pm 11.5 9.1 6.8 73 2.3 SSE 9 13 5 7 1022.1 - 0.0
30/08:00pm 12.4 10.0 6.9 69 2.7 SSW 9 17 5 9 1022.0 1021.7 0.0
30/07:30pm 12.5 10.1 7.0 69 2.7 SSW 9 15 5 8 1021.9 - 0.0
30/07:00pm 12.8 10.5 7.3 69 2.8 SSE 9 13 5 7 1021.8 1021.5 0.0
30/06:30pm 12.6 10.2 7.1 69 2.8 SE 9 13 5 7 1021.5 - 0.0
30/06:00pm 12.4 10.0 6.9 69 2.7 SE 9 13 5 7 1021.2 1020.9 0.0
30/05:30pm 13.9 11.5 7.2 64 3.4 SSE 9 13 5 7 1021.3 - 0.0
30/05:00pm 14.8 11.0 7.6 62 3.7 SE 17 20 9 11 1021.3 1021.0 0.0
30/04:30pm 15.5 11.1 7.3 58 4.2 SE 20 28 11 15 1021.2 - 0.0
30/04:00pm 16.0 11.6 7.5 57 4.4 SSE 20 28 11 15 1021.2 1020.9 0.0
30/03:30pm 16.1 11.9 7.6 57 4.4 S 19 28 10 15 1021.3 - 0.0
30/03:00pm 16.3 12.0 7.8 57 4.4 SSE 20 28 11 15 1021.3 1021.0 0.0
30/02:30pm 16.2 12.4 7.7 57 4.4 SE 17 22 9 12 1021.6 - 0.0
30/02:00pm 15.7 11.8 7.2 57 4.3 S 17 26 9 14 1021.8 1021.5 0.0
30/01:30pm 16.1 12.9 8.3 60 4.1 S 15 22 8 12 1022.1 - 0.0
30/01:00pm 15.3 13.1 7.8 61 3.9 ESE 9 17 5 9 1022.7 1022.4 0.0
30/12:30pm 14.4 11.0 7.5 63 3.5 S 15 22 8 12 1022.9 - 0.0
30/12:00pm 13.5 10.1 6.1 61 3.6 SE 13 22 7 12 1023.4 1023.2 0.0

Other Formats:

Comma delimited format used in spreadsheet applications
http://www.bom.gov.au/fwo/IDN60801/IDN60801.95728.axf

JavaScript Object Notation format (JSON) in row-major order
http://www.bom.gov.au/fwo/IDN60801/IDN60801.95728.json